Time;durP1;ratioP1;P1;durP2;ratioP2;P2;SDS_P1;SDS_P2;PMS_P1;PMS_P2;Temp;Humidity;BMP_temperature;BMP_pressure;BME280_temperature;BME280_humidity;BME280_pressure;Samples;Min_cycle;Max_cycle;Signal;HPM_P1;HPM_P2
2022/08/22 00:10:07;;;;;;;1.45;0.50;;;18.40;99.90;;;;;;20841912;28;20104;-82
2022/08/22 00:20:21;;;;;;;2.83;0.67;;;18.30;99.90;;;;;;20812085;28;20482;-82
2022/08/22 00:30:23;;;;;;;2.63;0.82;;;18.30;99.90;;;;;;20833115;28;20098;-82
2022/08/22 00:40:52;;;;;;;2.95;0.73;;;18.20;99.90;;;;;;20824111;28;20469;-82
2022/08/22 00:51:29;;;;;;;1.67;0.73;;;18.10;99.90;;;;;;20821357;28;20041;-82
2022/08/22 01:01:34;;;;;;;3.40;1.67;;;18.00;99.90;;;;;;20848776;28;20566;-83
2022/08/22 01:11:52;;;;;;;1.48;0.40;;;17.90;99.90;;;;;;20845654;28;20021;-83
2022/08/22 01:22:45;;;;;;;2.20;0.90;;;17.80;99.90;;;;;;20840808;28;20090;-83
2022/08/22 01:33:24;;;;;;;1.50;0.50;;;17.60;99.90;;;;;;20789043;28;21045;-83
2022/08/22 01:43:34;;;;;;;3.22;1.05;;;17.60;99.90;;;;;;20825912;28;20686;-83
2022/08/22 01:53:40;;;;;;;1.38;0.60;;;17.60;99.90;;;;;;20802236;28;20092;-83
2022/08/22 02:04:00;;;;;;;4.13;0.82;;;17.40;99.90;;;;;;20815998;28;20084;-84
2022/08/22 02:14:31;;;;;;;2.05;0.60;;;17.40;99.90;;;;;;20814913;28;20082;-83
2022/08/22 02:24:32;;;;;;;2.05;0.60;;;17.30;99.90;;;;;;20805999;28;20703;-83
2022/08/22 02:35:07;;;;;;;2.50;0.70;;;17.30;99.90;;;;;;20808314;28;20041;-83
2022/08/22 02:45:47;;;;;;;1.60;0.60;;;17.30;99.90;;;;;;20796944;28;20619;-83
2022/08/22 02:56:09;;;;;;;1.73;0.75;;;17.30;99.90;;;;;;20819408;28;20055;-84
2022/08/22 03:06:31;;;;;;;1.13;0.50;;;17.20;99.90;;;;;;20836488;28;20033;-84
2022/08/22 03:16:54;;;;;;;3.65;0.80;;;17.20;99.90;;;;;;20827039;28;20037;-84
2022/08/22 03:27:16;;;;;;;1.48;0.77;;;17.20;99.90;;;;;;20797097;28;20044;-83
2022/08/22 03:37:24;;;;;;;2.67;0.60;;;17.30;99.90;;;;;;20828455;28;20603;-83
2022/08/22 03:47:45;;;;;;;2.08;0.45;;;17.30;99.90;;;;;;20821940;28;20025;-84
2022/08/22 03:58:23;;;;;;;2.10;1.10;;;17.30;99.90;;;;;;20803349;28;20048;-83
2022/08/22 04:08:44;;;;;;;;;;;17.30;99.90;;;;;;20796837;28;20735;-83
2022/08/22 04:19:01;;;;;;;2.20;0.68;;;17.30;99.90;;;;;;20795009;28;20439;-83
2022/08/22 04:29:07;;;;;;;1.05;0.43;;;17.20;99.90;;;;;;20817032;28;20084;-84
2022/08/22 04:39:17;;;;;;;2.85;0.60;;;17.20;99.90;;;;;;20849196;28;20720;-84
2022/08/22 04:49:39;;;;;;;2.63;1.10;;;17.30;99.90;;;;;;20827838;28;20082;-83
2022/08/22 04:59:41;;;;;;;2.13;0.82;;;17.20;99.90;;;;;;20842948;28;20728;-83
2022/08/22 05:09:52;;;;;;;3.42;1.88;;;17.10;99.90;;;;;;20829731;28;20025;-83
2022/08/22 05:19:56;;;;;;;1.88;0.68;;;17.00;99.90;;;;;;20811368;28;20036;-84
2022/08/22 05:30:04;;;;;;;2.08;0.68;;;17.10;99.90;;;;;;20814802;28;20084;-83
2022/08/22 05:40:08;;;;;;;5.32;0.68;;;17.10;99.90;;;;;;20812383;28;20720;-84
2022/08/22 05:50:14;;;;;;;2.80;0.80;;;17.20;99.90;;;;;;20818901;28;20405;-84
2022/08/22 06:00:22;;;;;;;1.45;0.60;;;17.30;99.90;;;;;;20811087;28;20088;-84
2022/08/22 06:10:28;;;;;;;2.35;0.82;;;17.40;99.90;;;;;;20797024;28;20091;-84
2022/08/22 06:20:43;;;;;;;1.90;0.73;;;17.50;99.90;;;;;;20818994;28;20143;-83
2022/08/22 06:30:46;;;;;;;1.90;0.80;;;17.60;99.90;;;;;;20815809;28;20025;-84
2022/08/22 06:40:51;;;;;;;1.95;0.80;;;17.70;99.90;;;;;;20794302;28;20037;-84
2022/08/22 06:50:57;;;;;;;1.48;0.70;;;17.90;99.90;;;;;;20822846;28;20034;-84
2022/08/22 07:01:04;;;;;;;3.63;1.67;;;18.00;99.90;;;;;;20812405;28;20493;-84
2022/08/22 07:11:22;;;;;;;2.42;0.63;;;18.10;99.90;;;;;;20790046;28;20914;-83
2022/08/22 07:21:40;;;;;;;2.08;0.80;;;18.40;99.90;;;;;;20787305;28;20037;-84
2022/08/22 07:31:53;;;;;;;7.13;1.10;;;18.60;99.90;;;;;;20807617;28;20103;-84
2022/08/22 07:42:14;;;;;;;2.95;1.40;;;18.90;99.90;;;;;;20726330;28;20111;-85
2022/08/22 07:52:16;;;;;;;6.22;1.85;;;19.00;99.90;;;;;;20724821;28;20536;-84
2022/08/22 08:02:19;;;;;;;3.58;1.45;;;19.20;99.90;;;;;;20728728;28;20026;-84
2022/08/22 08:12:37;;;;;;;4.57;1.35;;;19.50;99.90;;;;;;20764374;28;20543;-84
2022/08/22 08:22:41;;;;;;;2.83;1.00;;;19.80;99.90;;;;;;20745823;28;20046;-83
2022/08/22 08:32:49;;;;;;;3.10;1.00;;;20.10;99.90;;;;;;20753675;28;20033;-84
2022/08/22 08:53:51;;;;;;;3.50;0.60;;;20.70;99.90;;;;;;20772364;28;20766;-83
2022/08/22 09:04:14;;;;;;;2.03;0.77;;;21.20;99.90;;;;;;20803219;28;20037;-84
2022/08/22 09:14:27;;;;;;;2.58;0.60;;;21.70;99.90;;;;;;20846182;28;20048;-84
2022/08/22 09:24:30;;;;;;;1.48;0.80;;;22.20;99.90;;;;;;20811687;28;20034;-83
2022/08/22 09:34:44;;;;;;;1.63;0.60;;;22.70;99.90;;;;;;20815913;28;20543;-83
2022/08/22 09:45:15;;;;;;;1.23;0.60;;;23.00;99.90;;;;;;20837707;28;20037;-83
2022/08/22 09:55:46;;;;;;;2.65;1.05;;;23.00;99.90;;;;;;20731502;28;20987;-83
2022/08/22 10:06:14;;;;;;;2.15;0.82;;;22.60;99.90;;;;;;20794592;28;20392;-82
2022/08/22 10:16:36;;;;;;;1.60;0.77;;;22.60;99.90;;;;;;20794558;28;20066;-82
2022/08/22 10:26:53;;;;;;;2.25;0.60;;;22.80;99.90;;;;;;20795519;28;20076;-82
2022/08/22 10:37:29;;;;;;;3.37;0.90;;;23.00;99.90;;;;;;20783556;28;20493;-82
2022/08/22 10:47:38;;;;;;;2.70;0.80;;;23.10;99.90;;;;;;20787667;28;20534;-82
2022/08/22 10:57:48;;;;;;;2.53;0.63;;;23.60;99.90;;;;;;20787577;28;20038;-82
2022/08/22 11:08:14;;;;;;;2.72;1.38;;;24.20;99.90;;;;;;20786415;28;20044;-82
2022/08/22 11:18:43;;;;;;;2.00;0.75;;;24.40;99.90;;;;;;20805917;28;20644;-82
2022/08/22 11:29:03;;;;;;;1.25;0.55;;;25.20;99.90;;;;;;20799441;28;20037;-82
2022/08/22 11:39:22;;;;;;;1.75;0.60;;;25.90;99.90;;;;;;20809497;28;20049;-82
2022/08/22 11:49:46;;;;;;;3.33;0.60;;;25.40;99.90;;;;;;20787141;28;20084;-82
2022/08/22 12:00:09;;;;;;;5.18;0.73;;;24.80;99.90;;;;;;20768629;28;20033;-82
2022/08/22 12:10:13;;;;;;;1.67;0.60;;;25.50;99.90;;;;;;20761320;28;20536;-82
2022/08/22 12:20:50;;;;;;;1.13;0.47;;;25.00;99.90;;;;;;20781426;28;20038;-82
2022/08/22 12:31:26;;;;;;;5.77;0.83;;;24.60;99.90;;;;;;20787863;28;20108;-81
2022/08/22 12:41:39;;;;;;;1.08;0.63;;;25.50;99.90;;;;;;20802223;28;20544;-81
2022/08/22 12:52:01;;;;;;;4.82;0.60;;;26.50;98.20;;;;;;20835248;28;20032;-81
2022/08/22 13:02:23;;;;;;;2.72;0.70;;;26.40;99.90;;;;;;20807510;28;20049;-81
2022/08/22 13:12:44;;;;;;;2.45;0.73;;;27.50;97.80;;;;;;20850166;28;21684;-82
2022/08/22 13:22:45;;;;;;;3.33;0.50;;;28.00;97.50;;;;;;20815964;28;20037;-82
2022/08/22 13:32:53;;;;;;;1.45;0.40;;;28.70;95.70;;;;;;20806212;28;20091;-81
2022/08/22 13:43:22;;;;;;;1.80;0.68;;;28.60;94.30;;;;;;20808508;28;20050;-81
2022/08/22 13:53:34;;;;;;;1.15;0.57;;;28.60;96.80;;;;;;20738746;28;20481;-82
2022/08/22 14:03:45;;;;;;;2.17;0.52;;;28.80;96.30;;;;;;20806320;28;20931;-82
2022/08/22 14:13:51;;;;;;;1.25;0.40;;;28.40;96.00;;;;;;20805602;28;20037;-82
2022/08/22 14:23:56;;;;;;;1.48;0.57;;;27.80;95.40;;;;;;20830660;28;20052;-82
2022/08/22 14:34:03;;;;;;;6.88;1.45;;;27.70;96.40;;;;;;20811097;28;20069;-82
2022/08/22 14:44:15;;;;;;;5.95;1.02;;;27.60;96.00;;;;;;20806317;28;20397;-82
2022/08/22 14:54:20;;;;;;;3.17;0.80;;;26.90;96.90;;;;;;20813214;28;20726;-82
2022/08/22 15:04:44;;;;;;;1.92;0.70;;;26.20;97.30;;;;;;20814279;28;20056;-82
2022/08/22 15:14:49;;;;;;;1.10;0.40;;;25.70;97.70;;;;;;20815905;28;20034;-82
2022/08/22 15:25:10;;;;;;;3.40;0.90;;;25.40;98.90;;;;;;20803259;28;20037;-82
2022/08/22 15:35:15;;;;;;;1.38;0.65;;;25.50;98.50;;;;;;20790007;28;20565;-82
2022/08/22 15:45:32;;;;;;;1.42;0.50;;;25.80;97.90;;;;;;20790726;28;20116;-82
2022/08/22 15:55:35;;;;;;;2.22;0.60;;;25.90;98.60;;;;;;20791497;28;20042;-82
2022/08/22 16:05:46;;;;;;;1.13;0.50;;;26.10;98.10;;;;;;20791942;28;20094;-82
2022/08/22 16:15:47;;;;;;;2.20;0.57;;;25.90;97.60;;;;;;20797752;28;20381;-82
2022/08/22 16:25:51;;;;;;;1.50;0.52;;;25.80;97.40;;;;;;20813620;28;20140;-81
2022/08/22 16:36:35;;;;;;;1.48;0.70;;;25.80;97.80;;;;;;20811786;28;20095;-81
2022/08/22 16:46:40;;;;;;;1.50;0.60;;;25.60;97.20;;;;;;20797763;28;20552;-81
2022/08/22 16:57:06;;;;;;;1.50;0.70;;;25.40;99.00;;;;;;20821395;28;20034;-81
2022/08/22 17:07:28;;;;;;;1.65;0.50;;;25.10;99.90;;;;;;20846870;28;20735;-82
2022/08/22 17:17:35;;;;;;;1.08;0.47;;;24.90;99.90;;;;;;20822187;28;20037;-82
2022/08/22 17:27:38;;;;;;;;;;;24.70;99.90;;;;;;20830238;28;20099;-81
2022/08/22 17:38:10;;;;;;;0.60;0.50;;;24.50;99.90;;;;;;20829758;28;19921;-83
2022/08/22 17:48:23;;;;;;;1.38;0.47;;;24.30;99.90;;;;;;20809866;28;20646;-82
2022/08/22 17:58:30;;;;;;;1.45;0.77;;;24.10;99.90;;;;;;20836148;28;20119;-82
2022/08/22 18:08:42;;;;;;;1.40;0.70;;;23.90;99.90;;;;;;20825417;28;20030;-81
2022/08/22 18:19:05;;;;;;;2.40;0.52;;;23.60;99.90;;;;;;20828069;28;20085;-82
2022/08/22 18:29:09;;;;;;;1.60;0.60;;;23.50;99.90;;;;;;20805659;28;20575;-82
2022/08/22 18:39:20;;;;;;;1.40;0.60;;;23.20;99.90;;;;;;20856287;28;20076;-82
2022/08/22 18:49:21;;;;;;;1.00;0.50;;;23.00;99.90;;;;;;20838747;28;20034;-81
2022/08/22 18:59:30;;;;;;;1.50;0.60;;;22.70;99.90;;;;;;20814746;28;20041;-82
2022/08/22 19:10:03;;;;;;;1.80;0.80;;;22.40;99.90;;;;;;20804689;28;20040;-82
2022/08/22 19:31:41;;;;;;;2.90;1.27;;;21.90;99.90;;;;;;20822952;28;21744;-82
2022/08/22 19:41:44;;;;;;;3.40;1.60;;;21.80;99.90;;;;;;20811739;28;20869;-83
2022/08/22 19:51:58;;;;;;;3.80;0.93;;;21.70;99.90;;;;;;20812950;28;20423;-82
2022/08/22 20:02:24;;;;;;;2.72;1.10;;;21.70;99.90;;;;;;20809947;28;20040;-82
2022/08/22 20:12:27;;;;;;;1.70;1.10;;;21.60;99.90;;;;;;20826397;28;20034;-82
2022/08/22 20:22:37;;;;;;;1.90;0.68;;;21.40;99.90;;;;;;20810471;28;20069;-82
2022/08/22 20:32:46;;;;;;;1.77;0.80;;;21.20;99.90;;;;;;20818302;28;20037;-82
2022/08/22 20:42:50;;;;;;;2.47;0.80;;;21.00;99.90;;;;;;20795505;28;20038;-81
2022/08/22 20:53:10;;;;;;;1.60;0.80;;;20.90;99.90;;;;;;20810315;28;20523;-82
2022/08/22 21:03:23;;;;;;;2.45;1.60;;;20.70;99.90;;;;;;20821316;28;20100;-82
2022/08/22 21:13:27;;;;;;;2.13;0.63;;;20.70;99.90;;;;;;20806765;28;20033;-82
2022/08/22 21:23:28;;;;;;;5.72;1.20;;;20.70;99.90;;;;;;20808188;28;20094;-82
2022/08/22 21:33:29;;;;;;;1.83;0.82;;;20.80;99.90;;;;;;20814959;28;20033;-82
2022/08/22 21:43:35;;;;;;;2.00;0.70;;;20.80;99.90;;;;;;20807882;28;20088;-82
2022/08/22 21:53:36;;;;;;;0.85;0.50;;;20.90;99.90;;;;;;20825928;28;20033;-82
2022/08/22 22:03:37;;;;;;;2.83;0.93;;;20.90;99.90;;;;;;20844938;28;20042;-82
2022/08/22 22:13:39;;;;;;;2.45;1.23;;;20.80;99.90;;;;;;20815099;28;20033;-82
2022/08/22 22:23:40;;;;;;;1.13;0.70;;;20.80;99.90;;;;;;20800044;28;20435;-82
2022/08/22 22:33:41;;;;;;;1.60;0.70;;;20.70;99.90;;;;;;20829525;28;20053;-82
2022/08/22 22:43:42;;;;;;;2.90;1.10;;;20.60;99.90;;;;;;20811346;28;20581;-82
2022/08/22 22:53:44;;;;;;;3.88;1.42;;;20.60;99.90;;;;;;20778739;28;20735;-81
2022/08/22 23:03:47;;;;;;;1.65;0.73;;;20.60;99.90;;;;;;20824187;28;20041;-82
2022/08/22 23:13:48;;;;;;;1.33;0.90;;;20.50;99.90;;;;;;20814022;28;20075;-82
2022/08/22 23:23:52;;;;;;;1.55;0.65;;;20.40;99.90;;;;;;20828986;28;20037;-82
2022/08/22 23:33:54;;;;;;;3.00;0.70;;;20.30;99.90;;;;;;20770857;28;20123;-82
2022/08/22 23:43:55;;;;;;;1.65;1.00;;;20.30;99.90;;;;;;20782800;28;20176;-82
2022/08/22 23:53:58;;;;;;;1.88;0.85;;;20.30;99.90;;;;;;20762744;28;20030;-82
